Terminal Aerodrome Forecast
Issued by NWS Knoxville/Tri Cities, TN

Home | Current Version | Previous Version | Text Only | Print | Product List | Glossary On
Versions: 1 2 3 4 5 6 7 8 9 10 11 12 13 14 15 16 17 18 19 20 21 22 23 24 25 26 27 28 29 30 31 32
000
FTUS44 KMRX 042332
TAFTRI
TAF
KTRI 042332Z 0500/0524 27010KT P6SM VCSH SCT050 BKN060
      TEMPO 0501/0503 SHRA SCT025 OVC035
     FM050300 26008KT P6SM VCSH BKN035
     FM051400 27010G17KT P6SM VCSH BKN035=

USA.gov is the U.S. government's official web portal to all federal, state and local government web resources and services.